sensor_id;sensor_type;location;lat;lon;timestamp;temperature;humidity
27559;DHT22;15002;52.028;5.670;2022-10-16T00:01:28;16.00;99.90
27559;DHT22;15002;52.028;5.670;2022-10-16T00:03:56;15.90;99.90
27559;DHT22;15002;52.028;5.670;2022-10-16T00:06:22;15.90;99.90
27559;DHT22;15002;52.028;5.670;2022-10-16T00:08:49;15.90;99.90
27559;DHT22;15002;52.028;5.670;2022-10-16T00:11:20;15.90;99.90
27559;DHT22;15002;52.028;5.670;2022-10-16T00:13:47;15.90;99.90
27559;DHT22;15002;52.028;5.670;2022-10-16T00:16:13;15.90;99.90
27559;DHT22;15002;52.028;5.670;2022-10-16T00:18:39;15.90;99.90
27559;DHT22;15002;52.028;5.670;2022-10-16T00:21:08;15.70;99.90
27559;DHT22;15002;52.028;5.670;2022-10-16T00:23:35;15.80;99.90
27559;DHT22;15002;52.028;5.670;2022-10-16T00:26:06;15.80;99.90
27559;DHT22;15002;52.028;5.670;2022-10-16T00:28:33;15.70;99.90
27559;DHT22;15002;52.028;5.670;2022-10-16T00:30:59;15.80;99.90
27559;DHT22;15002;52.028;5.670;2022-10-16T00:33:27;15.70;99.90
27559;DHT22;15002;52.028;5.670;2022-10-16T00:35:52;15.90;99.90
27559;DHT22;15002;52.028;5.670;2022-10-16T00:38:18;15.90;99.90
27559;DHT22;15002;52.028;5.670;2022-10-16T00:40:44;15.80;99.90
27559;DHT22;15002;52.028;5.670;2022-10-16T00:43:13;15.70;99.90
27559;DHT22;15002;52.028;5.670;2022-10-16T00:45:40;15.90;99.90
27559;DHT22;15002;52.028;5.670;2022-10-16T00:48:11;15.80;99.90
27559;DHT22;15002;52.028;5.670;2022-10-16T00:50:39;15.90;99.90
27559;DHT22;15002;52.028;5.670;2022-10-16T00:53:08;15.90;99.90
27559;DHT22;15002;52.028;5.670;2022-10-16T00:55:34;15.80;99.90
27559;DHT22;15002;52.028;5.670;2022-10-16T00:58:00;15.90;99.90
27559;DHT22;15002;52.028;5.670;2022-10-16T01:00:26;15.90;99.90
27559;DHT22;15002;52.028;5.670;2022-10-16T01:02:58;15.80;99.90
27559;DHT22;15002;52.028;5.670;2022-10-16T01:05:34;15.80;99.90
27559;DHT22;15002;52.028;5.670;2022-10-16T01:08:22;15.80;99.90
27559;DHT22;15002;52.028;5.670;2022-10-16T01:10:57;15.90;99.90
27559;DHT22;15002;52.028;5.670;2022-10-16T01:13:29;15.90;99.90
27559;DHT22;15002;52.028;5.670;2022-10-16T01:18:56;15.90;99.90
27559;DHT22;15002;52.028;5.670;2022-10-16T01:21:29;15.90;99.90
27559;DHT22;15002;52.028;5.670;2022-10-16T01:24:27;15.90;99.90
27559;DHT22;15002;52.028;5.670;2022-10-16T01:32:39;15.90;99.90
27559;DHT22;15002;52.028;5.670;2022-10-16T01:35:14;15.80;99.90
27559;DHT22;15002;52.028;5.670;2022-10-16T01:40:31;15.90;99.90
27559;DHT22;15002;52.028;5.670;2022-10-16T01:43:19;15.90;99.90
27559;DHT22;15002;52.028;5.670;2022-10-16T01:45:46;16.10;99.90
27559;DHT22;15002;52.028;5.670;2022-10-16T01:48:16;16.10;99.90
27559;DHT22;15002;52.028;5.670;2022-10-16T01:50:44;16.10;99.90
27559;DHT22;15002;52.028;5.670;2022-10-16T01:53:13;16.10;99.90
27559;DHT22;15002;52.028;5.670;2022-10-16T01:55:43;16.20;99.90
27559;DHT22;15002;52.028;5.670;2022-10-16T01:58:12;16.00;99.90
27559;DHT22;15002;52.028;5.670;2022-10-16T02:00:41;16.10;99.90
27559;DHT22;15002;52.028;5.670;2022-10-16T02:03:08;16.10;99.90
27559;DHT22;15002;52.028;5.670;2022-10-16T02:08:11;16.10;99.90
27559;DHT22;15002;52.028;5.670;2022-10-16T02:10:37;16.20;99.90
27559;DHT22;15002;52.028;5.670;2022-10-16T02:13:13;16.10;99.90
27559;DHT22;15002;52.028;5.670;2022-10-16T02:15:41;16.10;99.90
27559;DHT22;15002;52.028;5.670;2022-10-16T02:18:07;16.10;99.90
27559;DHT22;15002;52.028;5.670;2022-10-16T02:20:47;16.20;99.90
27559;DHT22;15002;52.028;5.670;2022-10-16T02:23:28;16.10;99.90
27559;DHT22;15002;52.028;5.670;2022-10-16T02:25:56;16.10;99.90
27559;DHT22;15002;52.028;5.670;2022-10-16T02:28:28;16.10;99.90
27559;DHT22;15002;52.028;5.670;2022-10-16T02:31:01;16.10;99.90
27559;DHT22;15002;52.028;5.670;2022-10-16T02:33:29;16.10;99.90
27559;DHT22;15002;52.028;5.670;2022-10-16T02:35:56;16.10;99.90
27559;DHT22;15002;52.028;5.670;2022-10-16T02:38:23;16.00;99.90
27559;DHT22;15002;52.028;5.670;2022-10-16T02:40:50;16.00;99.90
27559;DHT22;15002;52.028;5.670;2022-10-16T02:43:16;16.00;99.90
27559;DHT22;15002;52.028;5.670;2022-10-16T02:45:42;16.00;99.90
27559;DHT22;15002;52.028;5.670;2022-10-16T02:48:08;16.00;99.90
27559;DHT22;15002;52.028;5.670;2022-10-16T02:50:33;16.10;99.90
27559;DHT22;15002;52.028;5.670;2022-10-16T02:52:59;16.10;99.90
27559;DHT22;15002;52.028;5.670;2022-10-16T02:55:25;16.10;99.90
27559;DHT22;15002;52.028;5.670;2022-10-16T02:57:51;16.10;99.90
27559;DHT22;15002;52.028;5.670;2022-10-16T03:00:17;16.10;99.90
27559;DHT22;15002;52.028;5.670;2022-10-16T03:02:43;16.10;99.90
27559;DHT22;15002;52.028;5.670;2022-10-16T03:05:09;16.10;99.90
27559;DHT22;15002;52.028;5.670;2022-10-16T03:07:35;16.20;99.90
27559;DHT22;15002;52.028;5.670;2022-10-16T03:10:01;16.30;99.90
27559;DHT22;15002;52.028;5.670;2022-10-16T03:12:27;16.30;99.90
27559;DHT22;15002;52.028;5.670;2022-10-16T03:14:53;16.20;99.90
27559;DHT22;15002;52.028;5.670;2022-10-16T03:17:18;16.10;99.90
27559;DHT22;15002;52.028;5.670;2022-10-16T03:19:44;16.10;99.90
27559;DHT22;15002;52.028;5.670;2022-10-16T03:22:10;16.10;99.90
27559;DHT22;15002;52.028;5.670;2022-10-16T03:24:36;16.10;99.90
27559;DHT22;15002;52.028;5.670;2022-10-16T03:27:01;16.00;99.90
27559;DHT22;15002;52.028;5.670;2022-10-16T03:29:27;16.10;99.90
27559;DHT22;15002;52.028;5.670;2022-10-16T03:31:55;16.10;99.90
27559;DHT22;15002;52.028;5.670;2022-10-16T03:34:21;16.10;99.90
27559;DHT22;15002;52.028;5.670;2022-10-16T03:36:46;16.10;99.90
27559;DHT22;15002;52.028;5.670;2022-10-16T03:39:12;16.10;99.90
27559;DHT22;15002;52.028;5.670;2022-10-16T03:41:37;16.10;99.90
27559;DHT22;15002;52.028;5.670;2022-10-16T03:44:03;16.10;99.90
27559;DHT22;15002;52.028;5.670;2022-10-16T03:46:29;16.00;99.90
27559;DHT22;15002;52.028;5.670;2022-10-16T03:48:54;16.00;99.90
27559;DHT22;15002;52.028;5.670;2022-10-16T03:51:20;16.00;99.90
27559;DHT22;15002;52.028;5.670;2022-10-16T03:53:46;16.10;99.90
27559;DHT22;15002;52.028;5.670;2022-10-16T03:56:12;16.10;99.90
27559;DHT22;15002;52.028;5.670;2022-10-16T03:58:37;16.10;99.90
27559;DHT22;15002;52.028;5.670;2022-10-16T04:01:03;16.00;99.90
27559;DHT22;15002;52.028;5.670;2022-10-16T04:03:28;15.90;99.90
27559;DHT22;15002;52.028;5.670;2022-10-16T04:05:54;15.90;99.90
27559;DHT22;15002;52.028;5.670;2022-10-16T04:08:20;15.90;99.90
27559;DHT22;15002;52.028;5.670;2022-10-16T04:10:46;16.10;99.90
27559;DHT22;15002;52.028;5.670;2022-10-16T04:13:11;16.00;99.90
27559;DHT22;15002;52.028;5.670;2022-10-16T04:15:37;16.00;99.90
27559;DHT22;15002;52.028;5.670;2022-10-16T04:18:04;15.90;99.90
27559;DHT22;15002;52.028;5.670;2022-10-16T04:20:31;15.90;99.90
27559;DHT22;15002;52.028;5.670;2022-10-16T04:22:56;15.90;99.90
27559;DHT22;15002;52.028;5.670;2022-10-16T04:25:22;16.00;99.90
27559;DHT22;15002;52.028;5.670;2022-10-16T04:27:48;15.90;99.90
27559;DHT22;15002;52.028;5.670;2022-10-16T04:30:14;15.90;99.90
27559;DHT22;15002;52.028;5.670;2022-10-16T04:32:40;15.90;99.90
27559;DHT22;15002;52.028;5.670;2022-10-16T04:35:06;15.90;99.90
27559;DHT22;15002;52.028;5.670;2022-10-16T04:37:32;16.00;99.90
27559;DHT22;15002;52.028;5.670;2022-10-16T04:39:57;16.00;99.90
27559;DHT22;15002;52.028;5.670;2022-10-16T04:42:23;15.90;99.90
27559;DHT22;15002;52.028;5.670;2022-10-16T04:44:48;15.90;99.90
27559;DHT22;15002;52.028;5.670;2022-10-16T04:47:14;16.00;99.90
27559;DHT22;15002;52.028;5.670;2022-10-16T04:49:40;16.00;99.90
27559;DHT22;15002;52.028;5.670;2022-10-16T04:52:06;15.90;99.90
27559;DHT22;15002;52.028;5.670;2022-10-16T04:54:31;15.90;99.90
27559;DHT22;15002;52.028;5.670;2022-10-16T04:56:57;15.90;99.90
27559;DHT22;15002;52.028;5.670;2022-10-16T04:59:23;15.70;99.90
27559;DHT22;15002;52.028;5.670;2022-10-16T05:01:49;15.80;99.90
27559;DHT22;15002;52.028;5.670;2022-10-16T05:04:14;15.70;99.90
27559;DHT22;15002;52.028;5.670;2022-10-16T05:06:41;15.70;99.90
27559;DHT22;15002;52.028;5.670;2022-10-16T05:09:07;15.70;99.90
27559;DHT22;15002;52.028;5.670;2022-10-16T05:11:33;15.60;99.90
27559;DHT22;15002;52.028;5.670;2022-10-16T05:13:59;15.70;99.90
27559;DHT22;15002;52.028;5.670;2022-10-16T05:16:25;15.70;99.90
27559;DHT22;15002;52.028;5.670;2022-10-16T05:18:51;15.80;99.90
27559;DHT22;15002;52.028;5.670;2022-10-16T05:21:17;15.70;99.90
27559;DHT22;15002;52.028;5.670;2022-10-16T05:23:43;15.70;99.90
27559;DHT22;15002;52.028;5.670;2022-10-16T05:26:08;15.60;99.90
27559;DHT22;15002;52.028;5.670;2022-10-16T05:28:34;15.60;99.90
27559;DHT22;15002;52.028;5.670;2022-10-16T05:31:07;15.60;99.90
27559;DHT22;15002;52.028;5.670;2022-10-16T05:33:33;15.60;99.90
27559;DHT22;15002;52.028;5.670;2022-10-16T05:36:07;15.50;99.90
27559;DHT22;15002;52.028;5.670;2022-10-16T05:38:34;15.50;99.90
27559;DHT22;15002;52.028;5.670;2022-10-16T05:40:59;15.40;99.90
27559;DHT22;15002;52.028;5.670;2022-10-16T05:43:27;15.40;99.90
27559;DHT22;15002;52.028;5.670;2022-10-16T05:46:05;15.40;99.90
27559;DHT22;15002;52.028;5.670;2022-10-16T05:48:32;15.50;99.90
27559;DHT22;15002;52.028;5.670;2022-10-16T05:51:02;15.40;99.90
27559;DHT22;15002;52.028;5.670;2022-10-16T05:53:30;15.50;99.90
27559;DHT22;15002;52.028;5.670;2022-10-16T05:55:56;15.40;99.90
27559;DHT22;15002;52.028;5.670;2022-10-16T05:58:22;15.30;99.90
27559;DHT22;15002;52.028;5.670;2022-10-16T06:01:03;15.50;99.90
27559;DHT22;15002;52.028;5.670;2022-10-16T06:03:29;15.50;99.90
27559;DHT22;15002;52.028;5.670;2022-10-16T06:05:55;15.40;99.90
27559;DHT22;15002;52.028;5.670;2022-10-16T06:08:22;15.40;99.90
27559;DHT22;15002;52.028;5.670;2022-10-16T06:10:49;15.40;99.90
27559;DHT22;15002;52.028;5.670;2022-10-16T06:13:15;15.40;99.90
27559;DHT22;15002;52.028;5.670;2022-10-16T06:15:42;15.40;99.90
27559;DHT22;15002;52.028;5.670;2022-10-16T06:18:11;15.40;99.90
27559;DHT22;15002;52.028;5.670;2022-10-16T06:20:37;15.40;99.90
27559;DHT22;15002;52.028;5.670;2022-10-16T06:23:03;15.40;99.90
27559;DHT22;15002;52.028;5.670;2022-10-16T06:25:33;15.50;99.90
27559;DHT22;15002;52.028;5.670;2022-10-16T06:27:58;15.50;99.90
27559;DHT22;15002;52.028;5.670;2022-10-16T06:30:24;15.60;99.90
27559;DHT22;15002;52.028;5.670;2022-10-16T06:32:49;15.60;99.90
27559;DHT22;15002;52.028;5.670;2022-10-16T06:35:15;15.60;99.90
27559;DHT22;15002;52.028;5.670;2022-10-16T06:37:41;15.60;99.90
27559;DHT22;15002;52.028;5.670;2022-10-16T06:40:07;15.50;99.90
27559;DHT22;15002;52.028;5.670;2022-10-16T06:42:32;15.70;99.90
27559;DHT22;15002;52.028;5.670;2022-10-16T06:44:58;15.70;99.90
27559;DHT22;15002;52.028;5.670;2022-10-16T06:47:23;15.60;99.90
27559;DHT22;15002;52.028;5.670;2022-10-16T06:49:49;15.80;99.90
27559;DHT22;15002;52.028;5.670;2022-10-16T06:52:15;15.80;99.90
27559;DHT22;15002;52.028;5.670;2022-10-16T06:54:40;15.70;99.90
27559;DHT22;15002;52.028;5.670;2022-10-16T06:57:06;15.80;99.90
27559;DHT22;15002;52.028;5.670;2022-10-16T06:59:31;15.80;99.90
27559;DHT22;15002;52.028;5.670;2022-10-16T07:01:57;15.90;99.90
27559;DHT22;15002;52.028;5.670;2022-10-16T07:04:22;15.90;99.90
27559;DHT22;15002;52.028;5.670;2022-10-16T07:06:48;15.90;99.90
27559;DHT22;15002;52.028;5.670;2022-10-16T07:09:14;15.80;99.90
27559;DHT22;15002;52.028;5.670;2022-10-16T07:11:40;15.80;99.90
27559;DHT22;15002;52.028;5.670;2022-10-16T07:14:16;15.80;99.90
27559;DHT22;15002;52.028;5.670;2022-10-16T07:16:42;15.90;99.90
27559;DHT22;15002;52.028;5.670;2022-10-16T07:19:08;16.00;99.90
27559;DHT22;15002;52.028;5.670;2022-10-16T07:21:34;16.00;99.90
27559;DHT22;15002;52.028;5.670;2022-10-16T07:24:05;15.90;99.90
27559;DHT22;15002;52.028;5.670;2022-10-16T07:26:33;15.90;99.90
27559;DHT22;15002;52.028;5.670;2022-10-16T07:28:59;16.10;99.90
27559;DHT22;15002;52.028;5.670;2022-10-16T07:31:26;16.10;99.90
27559;DHT22;15002;52.028;5.670;2022-10-16T07:33:51;16.10;99.90
27559;DHT22;15002;52.028;5.670;2022-10-16T07:36:18;16.10;99.90
27559;DHT22;15002;52.028;5.670;2022-10-16T07:38:45;16.10;99.90
27559;DHT22;15002;52.028;5.670;2022-10-16T07:41:16;16.20;99.90
27559;DHT22;15002;52.028;5.670;2022-10-16T07:44:00;16.30;99.90
27559;DHT22;15002;52.028;5.670;2022-10-16T07:46:26;16.40;99.90
27559;DHT22;15002;52.028;5.670;2022-10-16T07:48:52;16.40;99.90
27559;DHT22;15002;52.028;5.670;2022-10-16T07:51:20;16.40;99.90
27559;DHT22;15002;52.028;5.670;2022-10-16T07:53:46;16.50;99.90
27559;DHT22;15002;52.028;5.670;2022-10-16T07:56:12;16.70;99.90
27559;DHT22;15002;52.028;5.670;2022-10-16T07:58:38;16.70;99.90
27559;DHT22;15002;52.028;5.670;2022-10-16T08:01:09;16.80;99.90
27559;DHT22;15002;52.028;5.670;2022-10-16T08:03:35;16.90;99.90
27559;DHT22;15002;52.028;5.670;2022-10-16T08:06:01;16.90;99.90
27559;DHT22;15002;52.028;5.670;2022-10-16T08:08:27;16.80;99.90
27559;DHT22;15002;52.028;5.670;2022-10-16T08:10:53;16.70;99.90
27559;DHT22;15002;52.028;5.670;2022-10-16T08:13:19;16.70;99.90
27559;DHT22;15002;52.028;5.670;2022-10-16T08:15:45;16.70;99.90
27559;DHT22;15002;52.028;5.670;2022-10-16T08:18:13;16.80;99.90
27559;DHT22;15002;52.028;5.670;2022-10-16T08:20:40;16.70;99.90
27559;DHT22;15002;52.028;5.670;2022-10-16T08:23:07;16.70;99.90
27559;DHT22;15002;52.028;5.670;2022-10-16T08:25:35;16.80;99.90
27559;DHT22;15002;52.028;5.670;2022-10-16T08:28:05;16.80;99.90
27559;DHT22;15002;52.028;5.670;2022-10-16T08:30:31;17.00;99.90
27559;DHT22;15002;52.028;5.670;2022-10-16T08:32:57;17.10;99.90
27559;DHT22;15002;52.028;5.670;2022-10-16T08:35:23;17.00;99.90
27559;DHT22;15002;52.028;5.670;2022-10-16T08:37:49;17.10;99.90
27559;DHT22;15002;52.028;5.670;2022-10-16T08:40:25;17.10;99.90
27559;DHT22;15002;52.028;5.670;2022-10-16T08:46:15;17.20;99.90
27559;DHT22;15002;52.028;5.670;2022-10-16T08:48:54;17.30;99.90
27559;DHT22;15002;52.028;5.670;2022-10-16T08:51:40;17.20;99.90
27559;DHT22;15002;52.028;5.670;2022-10-16T08:56:41;17.30;99.90
27559;DHT22;15002;52.028;5.670;2022-10-16T08:59:10;17.40;99.90
27559;DHT22;15002;52.028;5.670;2022-10-16T09:01:44;17.50;99.90
27559;DHT22;15002;52.028;5.670;2022-10-16T09:12:40;18.20;99.90
27559;DHT22;15002;52.028;5.670;2022-10-16T09:15:29;18.50;99.90
27559;DHT22;15002;52.028;5.670;2022-10-16T09:20:51;19.00;99.90
27559;DHT22;15002;52.028;5.670;2022-10-16T09:23:25;19.10;99.90
27559;DHT22;15002;52.028;5.670;2022-10-16T09:25:52;19.20;99.90
27559;DHT22;15002;52.028;5.670;2022-10-16T09:28:18;19.30;99.90
27559;DHT22;15002;52.028;5.670;2022-10-16T09:30:45;19.50;99.90
27559;DHT22;15002;52.028;5.670;2022-10-16T09:33:12;19.70;99.90
27559;DHT22;15002;52.028;5.670;2022-10-16T09:35:47;20.00;99.90
27559;DHT22;15002;52.028;5.670;2022-10-16T09:38:34;19.90;99.90
27559;DHT22;15002;52.028;5.670;2022-10-16T09:41:23;19.90;99.90
27559;DHT22;15002;52.028;5.670;2022-10-16T09:43:52;20.20;99.90
27559;DHT22;15002;52.028;5.670;2022-10-16T09:46:29;20.20;99.90
27559;DHT22;15002;52.028;5.670;2022-10-16T09:49:00;20.30;99.90
27559;DHT22;15002;52.028;5.670;2022-10-16T09:51:35;20.40;99.90
27559;DHT22;15002;52.028;5.670;2022-10-16T09:54:14;20.30;99.90
27559;DHT22;15002;52.028;5.670;2022-10-16T09:56:40;20.50;99.90
27559;DHT22;15002;52.028;5.670;2022-10-16T09:59:12;20.50;99.90
27559;DHT22;15002;52.028;5.670;2022-10-16T10:01:40;20.70;99.90
27559;DHT22;15002;52.028;5.670;2022-10-16T10:04:07;20.60;99.90
27559;DHT22;15002;52.028;5.670;2022-10-16T10:06:41;20.60;99.90
27559;DHT22;15002;52.028;5.670;2022-10-16T10:11:51;20.60;99.90
27559;DHT22;15002;52.028;5.670;2022-10-16T10:14:37;20.70;99.90
27559;DHT22;15002;52.028;5.670;2022-10-16T10:19:54;20.80;99.90
27559;DHT22;15002;52.028;5.670;2022-10-16T10:38:34;20.90;99.90
27559;DHT22;15002;52.028;5.670;2022-10-16T10:49:11;20.60;99.90
27559;DHT22;15002;52.028;5.670;2022-10-16T10:56:57;20.50;99.90
27559;DHT22;15002;52.028;5.670;2022-10-16T10:59:39;20.40;99.90
27559;DHT22;15002;52.028;5.670;2022-10-16T11:07:35;20.40;99.90
27559;DHT22;15002;52.028;5.670;2022-10-16T11:10:20;20.40;99.90
27559;DHT22;15002;52.028;5.670;2022-10-16T11:13:01;20.40;99.90
27559;DHT22;15002;52.028;5.670;2022-10-16T11:15:37;20.40;99.90
27559;DHT22;15002;52.028;5.670;2022-10-16T11:18:18;20.50;99.90
27559;DHT22;15002;52.028;5.670;2022-10-16T11:20:51;20.50;99.90
27559;DHT22;15002;52.028;5.670;2022-10-16T11:26:11;20.60;99.90
27559;DHT22;15002;52.028;5.670;2022-10-16T11:29:05;20.60;99.40
27559;DHT22;15002;52.028;5.670;2022-10-16T11:31:42;20.60;99.20
27559;DHT22;15002;52.028;5.670;2022-10-16T11:34:30;20.60;99.90
27559;DHT22;15002;52.028;5.670;2022-10-16T11:37:14;20.70;99.20
27559;DHT22;15002;52.028;5.670;2022-10-16T11:39:42;20.60;99.30
27559;DHT22;15002;52.028;5.670;2022-10-16T11:49:47;20.60;99.20
27559;DHT22;15002;52.028;5.670;2022-10-16T11:52:26;20.70;99.50
27559;DHT22;15002;52.028;5.670;2022-10-16T11:57:44;20.40;98.40
27559;DHT22;15002;52.028;5.670;2022-10-16T12:00:22;20.40;98.60
27559;DHT22;15002;52.028;5.670;2022-10-16T12:03:08;20.30;98.10
27559;DHT22;15002;52.028;5.670;2022-10-16T12:08:20;20.10;98.10
27559;DHT22;15002;52.028;5.670;2022-10-16T12:10:47;19.90;98.20
27559;DHT22;15002;52.028;5.670;2022-10-16T12:13:34;19.80;98.50
27559;DHT22;15002;52.028;5.670;2022-10-16T12:18:43;20.00;99.20
27559;DHT22;15002;52.028;5.670;2022-10-16T12:21:10;20.10;99.10
27559;DHT22;15002;52.028;5.670;2022-10-16T12:23:51;20.00;99.40
27559;DHT22;15002;52.028;5.670;2022-10-16T12:26:29;20.10;99.50
27559;DHT22;15002;52.028;5.670;2022-10-16T12:29:12;20.10;98.40
27559;DHT22;15002;52.028;5.670;2022-10-16T12:31:47;20.00;98.90
27559;DHT22;15002;52.028;5.670;2022-10-16T12:34:28;20.20;98.80
27559;DHT22;15002;52.028;5.670;2022-10-16T12:36:55;20.30;98.80
27559;DHT22;15002;52.028;5.670;2022-10-16T12:39:32;20.30;98.40
27559;DHT22;15002;52.028;5.670;2022-10-16T12:45:27;20.30;98.60
27559;DHT22;15002;52.028;5.670;2022-10-16T12:47:55;20.50;97.60
27559;DHT22;15002;52.028;5.670;2022-10-16T12:52:56;20.50;97.20
27559;DHT22;15002;52.028;5.670;2022-10-16T12:55:23;20.40;97.10
27559;DHT22;15002;52.028;5.670;2022-10-16T13:00:45;20.30;97.20
27559;DHT22;15002;52.028;5.670;2022-10-16T13:08:34;20.40;97.80
27559;DHT22;15002;52.028;5.670;2022-10-16T13:11:06;20.50;97.90
27559;DHT22;15002;52.028;5.670;2022-10-16T13:16:50;20.40;97.30
27559;DHT22;15002;52.028;5.670;2022-10-16T13:19:42;20.40;97.30
27559;DHT22;15002;52.028;5.670;2022-10-16T13:22:22;20.30;97.10
27559;DHT22;15002;52.028;5.670;2022-10-16T13:25:13;20.20;97.20
27559;DHT22;15002;52.028;5.670;2022-10-16T13:28:03;20.30;97.40
27559;DHT22;15002;52.028;5.670;2022-10-16T13:30:37;20.30;96.80
27559;DHT22;15002;52.028;5.670;2022-10-16T13:35:49;20.40;97.00
27559;DHT22;15002;52.028;5.670;2022-10-16T13:38:21;20.50;96.70
27559;DHT22;15002;52.028;5.670;2022-10-16T13:40:55;20.60;96.50
27559;DHT22;15002;52.028;5.670;2022-10-16T13:46:15;20.40;97.10
27559;DHT22;15002;52.028;5.670;2022-10-16T13:48:41;20.50;97.10
27559;DHT22;15002;52.028;5.670;2022-10-16T13:53:39;20.40;97.10
27559;DHT22;15002;52.028;5.670;2022-10-16T13:56:09;20.40;97.30
27559;DHT22;15002;52.028;5.670;2022-10-16T13:58:36;20.40;97.40
27559;DHT22;15002;52.028;5.670;2022-10-16T14:01:04;20.50;96.90
27559;DHT22;15002;52.028;5.670;2022-10-16T14:03:31;20.40;97.20
27559;DHT22;15002;52.028;5.670;2022-10-16T14:06:02;20.50;97.30
27559;DHT22;15002;52.028;5.670;2022-10-16T14:08:29;20.40;97.30
27559;DHT22;15002;52.028;5.670;2022-10-16T14:10:59;20.40;97.30
27559;DHT22;15002;52.028;5.670;2022-10-16T14:13:37;20.40;97.30
27559;DHT22;15002;52.028;5.670;2022-10-16T14:16:27;20.40;97.50
27559;DHT22;15002;52.028;5.670;2022-10-16T14:19:02;20.40;97.50
27559;DHT22;15002;52.028;5.670;2022-10-16T14:21:30;20.40;97.90
27559;DHT22;15002;52.028;5.670;2022-10-16T14:23:57;20.30;98.00
27559;DHT22;15002;52.028;5.670;2022-10-16T14:26:27;20.30;98.10
27559;DHT22;15002;52.028;5.670;2022-10-16T14:29:14;20.30;97.80
27559;DHT22;15002;52.028;5.670;2022-10-16T14:31:40;20.30;98.00
27559;DHT22;15002;52.028;5.670;2022-10-16T14:36:54;20.40;97.80
27559;DHT22;15002;52.028;5.670;2022-10-16T14:39:22;20.30;97.70
27559;DHT22;15002;52.028;5.670;2022-10-16T14:41:49;20.40;97.60
27559;DHT22;15002;52.028;5.670;2022-10-16T14:44:17;20.30;97.60
27559;DHT22;15002;52.028;5.670;2022-10-16T14:46:44;20.40;98.30
27559;DHT22;15002;52.028;5.670;2022-10-16T14:51:40;20.30;98.00
27559;DHT22;15002;52.028;5.670;2022-10-16T14:54:10;20.30;98.30
27559;DHT22;15002;52.028;5.670;2022-10-16T14:56:57;20.20;99.00
27559;DHT22;15002;52.028;5.670;2022-10-16T14:59:35;20.20;98.80
27559;DHT22;15002;52.028;5.670;2022-10-16T15:02:27;20.10;98.80
27559;DHT22;15002;52.028;5.670;2022-10-16T15:04:53;20.10;99.10
27559;DHT22;15002;52.028;5.670;2022-10-16T15:07:19;20.10;99.00
27559;DHT22;15002;52.028;5.670;2022-10-16T15:09:44;20.00;99.10
27559;DHT22;15002;52.028;5.670;2022-10-16T15:12:10;20.10;99.20
27559;DHT22;15002;52.028;5.670;2022-10-16T15:14:36;20.10;99.70
27559;DHT22;15002;52.028;5.670;2022-10-16T15:17:02;20.10;99.70
27559;DHT22;15002;52.028;5.670;2022-10-16T15:19:29;20.10;99.60
27559;DHT22;15002;52.028;5.670;2022-10-16T15:21:54;20.10;99.70
27559;DHT22;15002;52.028;5.670;2022-10-16T15:24:20;20.00;99.90
27559;DHT22;15002;52.028;5.670;2022-10-16T15:26:45;20.00;99.90
27559;DHT22;15002;52.028;5.670;2022-10-16T15:29:12;20.00;99.90
27559;DHT22;15002;52.028;5.670;2022-10-16T15:31:38;20.10;99.90
27559;DHT22;15002;52.028;5.670;2022-10-16T15:34:04;20.00;99.90
27559;DHT22;15002;52.028;5.670;2022-10-16T15:36:36;20.00;99.90
27559;DHT22;15002;52.028;5.670;2022-10-16T15:39:12;20.00;99.90
27559;DHT22;15002;52.028;5.670;2022-10-16T15:41:37;19.90;99.90
27559;DHT22;15002;52.028;5.670;2022-10-16T15:44:03;19.80;99.90
27559;DHT22;15002;52.028;5.670;2022-10-16T15:46:29;19.80;99.90
27559;DHT22;15002;52.028;5.670;2022-10-16T15:48:57;19.80;99.90
27559;DHT22;15002;52.028;5.670;2022-10-16T15:51:24;19.80;99.90
27559;DHT22;15002;52.028;5.670;2022-10-16T15:53:50;19.80;99.90
27559;DHT22;15002;52.028;5.670;2022-10-16T15:56:17;19.70;99.90
27559;DHT22;15002;52.028;5.670;2022-10-16T15:58:43;19.60;99.90
27559;DHT22;15002;52.028;5.670;2022-10-16T16:01:09;19.50;99.90
27559;DHT22;15002;52.028;5.670;2022-10-16T16:03:36;19.40;99.90
27559;DHT22;15002;52.028;5.670;2022-10-16T16:06:10;19.40;99.90
27559;DHT22;15002;52.028;5.670;2022-10-16T16:08:37;19.40;99.90
27559;DHT22;15002;52.028;5.670;2022-10-16T16:11:09;19.30;99.90
27559;DHT22;15002;52.028;5.670;2022-10-16T16:13:35;19.30;99.90
27559;DHT22;15002;52.028;5.670;2022-10-16T16:16:06;19.20;99.90
27559;DHT22;15002;52.028;5.670;2022-10-16T16:18:32;19.20;99.90
27559;DHT22;15002;52.028;5.670;2022-10-16T16:20:58;19.20;99.90
27559;DHT22;15002;52.028;5.670;2022-10-16T16:23:24;19.10;99.90
27559;DHT22;15002;52.028;5.670;2022-10-16T16:26:29;19.00;99.90
27559;DHT22;15002;52.028;5.670;2022-10-16T16:29:01;18.90;99.90
27559;DHT22;15002;52.028;5.670;2022-10-16T16:31:28;18.70;99.90
27559;DHT22;15002;52.028;5.670;2022-10-16T16:33:54;18.70;99.90
27559;DHT22;15002;52.028;5.670;2022-10-16T16:36:22;18.70;99.90
27559;DHT22;15002;52.028;5.670;2022-10-16T16:38:48;18.70;99.90
27559;DHT22;15002;52.028;5.670;2022-10-16T16:41:15;18.80;99.90
27559;DHT22;15002;52.028;5.670;2022-10-16T16:43:41;18.70;99.90
27559;DHT22;15002;52.028;5.670;2022-10-16T16:46:07;18.70;99.90
27559;DHT22;15002;52.028;5.670;2022-10-16T16:48:33;18.70;99.90
27559;DHT22;15002;52.028;5.670;2022-10-16T16:51:06;18.60;99.90
27559;DHT22;15002;52.028;5.670;2022-10-16T16:53:34;18.50;99.90
27559;DHT22;15002;52.028;5.670;2022-10-16T16:56:04;18.50;99.90
27559;DHT22;15002;52.028;5.670;2022-10-16T16:58:31;18.40;99.90
27559;DHT22;15002;52.028;5.670;2022-10-16T17:00:57;18.30;99.90
27559;DHT22;15002;52.028;5.670;2022-10-16T17:03:27;18.30;99.90
27559;DHT22;15002;52.028;5.670;2022-10-16T17:05:57;18.10;99.90
27559;DHT22;15002;52.028;5.670;2022-10-16T17:08:23;18.10;99.90
27559;DHT22;15002;52.028;5.670;2022-10-16T17:10:48;18.20;99.90
27559;DHT22;15002;52.028;5.670;2022-10-16T17:13:18;18.20;99.90
27559;DHT22;15002;52.028;5.670;2022-10-16T17:15:46;18.30;99.90
27559;DHT22;15002;52.028;5.670;2022-10-16T17:18:12;18.30;99.90
27559;DHT22;15002;52.028;5.670;2022-10-16T17:20:38;18.40;99.90
27559;DHT22;15002;52.028;5.670;2022-10-16T17:23:04;18.50;99.90
27559;DHT22;15002;52.028;5.670;2022-10-16T17:25:29;18.40;99.90
27559;DHT22;15002;52.028;5.670;2022-10-16T17:27:55;18.30;99.90
27559;DHT22;15002;52.028;5.670;2022-10-16T17:30:23;18.20;99.90
27559;DHT22;15002;52.028;5.670;2022-10-16T17:32:49;18.30;99.90
27559;DHT22;15002;52.028;5.670;2022-10-16T17:35:14;18.30;99.90
27559;DHT22;15002;52.028;5.670;2022-10-16T17:37:41;18.30;99.90
27559;DHT22;15002;52.028;5.670;2022-10-16T17:40:08;18.30;99.90
27559;DHT22;15002;52.028;5.670;2022-10-16T17:42:34;18.30;99.90
27559;DHT22;15002;52.028;5.670;2022-10-16T17:45:00;18.40;99.90